^^
Station Historical Data
 
Daily Summary for August 17, 2017 Units:  English    Metric   Both
« Previous Day
Next Day »
Daily Weekly Monthly Yearly Custom
  Current: High: Low: Average:
Temperature: 60.0 °F 60.0 °F 51.0 °F 54.4 °F
Dew Point: 52.8 °F 53.4 °F 48.2 °F 50 °F
Humidity: 77% 92% 77% 85%
Wind Speed: 0.0mph 4.6mph 0.0mph 0.5mph
Wind Gust: 0.0mph 4.6mph - -
WindCalm - - SW
Pressure: 29.84 in 29.87 in 29.81 in -
Precipitation: 0.00 in      
Historical Graphs
 
 
Tabular Data for August 17, 2017
Time Temperature Dew Point Pressure Wind Wind Speed Wind Gust Humidity Rainfall Rate (Hourly) solar Conditions
00:01 57.9 °F 51.4 °F 29.83 in Calm     79% 0.00 in WeatherDisplay:10.37 W/m2 CLR
00:06 57.8 °F 51.3 °F 29.84 in Calm     79% 0.00 in WeatherDisplay:10.37 W/m2 CLR
00:11 57.7 °F 51.2 °F 29.84 in SW 1.2 mph   79% 0.00 in WeatherDisplay:10.37 W/m2 CLR
00:16 57.7 °F 51.6 °F 29.83 in Calm     80% 0.00 in WeatherDisplay:10.37 W/m2 CLR
00:21 57.5 °F 51.4 °F 29.83 in Calm     80% 0.00 in WeatherDisplay:10.37 W/m2 CLR
00:26 57.0 °F 50.9 °F 29.84 in SW 1.2 mph 1.2 mph 80% 0.00 in WeatherDisplay:10.37 W/m2 CLR
00:31 56.7 °F 50.9 °F 29.84 in Calm     81% 0.00 in WeatherDisplay:10.37 W/m2 CLR
00:36 56.5 °F 50.7 °F 29.84 in Calm     81% 0.00 in WeatherDisplay:10.37 W/m2 CLR
00:41 56.2 °F 50.8 °F 29.84 in Calm     82% 0.00 in WeatherDisplay:10.37 W/m2 CLR
00:46 56.0 °F 50.6 °F 29.84 in Calm     82% 0.00 in WeatherDisplay:10.37 W/m2 CLR
00:51 56.0 °F 50.6 °F 29.84 in SW 1.2 mph 1.2 mph 82% 0.00 in WeatherDisplay:10.37 W/m2 CLR
00:56 56.2 °F 50.4 °F 29.84 in SW 1.2 mph 1.2 mph 81% 0.00 in WeatherDisplay:10.37 W/m2 CLR
01:01 56.5 °F 50.4 °F 29.84 in Calm     80% 0.00 in WeatherDisplay:10.37 W/m2 CLR
01:06 56.6 °F 50.5 °F 29.83 in Calm     80% 0.00 in WeatherDisplay:10.37 W/m2 CLR
01:11 56.8 °F 50.7 °F 29.83 in SW 1.2 mph   80% 0.00 in WeatherDisplay:10.37 W/m2 CLR
01:16 56.9 °F 50.8 °F 29.83 in SW 1.2 mph 1.2 mph 80% 0.00 in WeatherDisplay:10.37 W/m2 CLR
01:21 56.8 °F 50.4 °F 29.82 in SW 1.2 mph 1.2 mph 79% 0.00 in WeatherDisplay:10.37 W/m2 CLR
01:26 56.7 °F 50.3 °F 29.82 in SW 2.3 mph 2.3 mph 79% 0.00 in WeatherDisplay:10.37 W/m2 CLR
01:31 56.6 °F 50.2 °F 29.82 in SW 1.2 mph   79% 0.00 in WeatherDisplay:10.37 W/m2 CLR
01:36 56.4 °F 50.3 °F 29.82 in SW 1.2 mph 1.2 mph 80% 0.00 in WeatherDisplay:10.37 W/m2 CLR
01:41 56.4 °F 50.3 °F 29.82 in SW 1.2 mph   80% 0.00 in WeatherDisplay:10.37 W/m2 CLR
01:46 56.4 °F 50.3 °F 29.82 in Calm   0.1 mph 80% 0.00 in WeatherDisplay:10.37 W/m2 CLR
01:51 56.3 °F 50.2 °F 29.81 in South 3.0 mph 3.0 mph 80% 0.00 in WeatherDisplay:10.37 W/m2 CLR
01:56 56.2 °F 50.1 °F 29.81 in SSW 4.6 mph 4.6 mph 80% 0.00 in WeatherDisplay:10.37 W/m2 CLR
02:01 56.0 °F 49.9 °F 29.81 in SSW 3.5 mph 3.5 mph 80% 0.00 in WeatherDisplay:10.37 W/m2 CLR
02:06 55.7 °F 50.0 °F 29.81 in SW 1.2 mph 1.2 mph 81% 0.00 in WeatherDisplay:10.37 W/m2 CLR
02:11 55.5 °F 49.8 °F 29.82 in SW 1.2 mph 1.2 mph 81% 0.00 in WeatherDisplay:10.37 W/m2 CLR
02:16 55.3 °F 49.6 °F 29.83 in Calm     81% 0.00 in WeatherDisplay:10.37 W/m2 CLR
02:21 55.2 °F 49.8 °F 29.83 in Calm     82% 0.00 in WeatherDisplay:10.37 W/m2 CLR
02:26 55.1 °F 49.7 °F 29.83 in Calm     82% 0.00 in WeatherDisplay:10.37 W/m2 CLR
02:31 55.0 °F 49.6 °F 29.83 in Calm     82% 0.00 in WeatherDisplay:10.37 W/m2 CLR
02:37 54.8 °F 49.7 °F 29.82 in Calm     83% 0.00 in WeatherDisplay:10.37 W/m2 CLR
02:42 54.6 °F 49.9 °F 29.82 in Calm     84% 0.00 in WeatherDisplay:10.37 W/m2 CLR
02:47 54.7 °F 50.3 °F 29.82 in Calm     85% 0.00 in WeatherDisplay:10.37 W/m2 CLR
02:52 54.8 °F 50.4 °F 29.82 in Calm     85% 0.00 in WeatherDisplay:10.37 W/m2 CLR
02:57 54.7 °F 50.3 °F 29.82 in SW 1.2 mph   85% 0.00 in WeatherDisplay:10.37 W/m2 CLR
03:02 54.7 °F 50.3 °F 29.82 in SW 1.2 mph 1.2 mph 85% 0.00 in WeatherDisplay:10.37 W/m2 CLR
03:07 54.5 °F 49.8 °F 29.82 in Calm     84% 0.00 in WeatherDisplay:10.37 W/m2 CLR
03:12 54.4 °F 49.7 °F 29.83 in Calm     84% 0.00 in WeatherDisplay:10.37 W/m2 CLR
03:17 54.3 °F 49.6 °F 29.83 in Calm     84% 0.00 in WeatherDisplay:10.37 W/m2 CLR
03:22 54.1 °F 49.7 °F 29.83 in Calm     85% 0.00 in WeatherDisplay:10.37 W/m2 CLR
03:27 54.0 °F 49.6 °F 29.83 in Calm     85% 0.00 in WeatherDisplay:10.37 W/m2 CLR
03:32 53.9 °F 49.5 °F 29.83 in Calm     85% 0.00 in WeatherDisplay:10.37 W/m2 CLR
03:37 53.8 °F 49.7 °F 29.83 in Calm     86% 0.00 in WeatherDisplay:10.37 W/m2 CLR
03:42 53.7 °F 49.6 °F 29.83 in Calm     86% 0.00 in WeatherDisplay:10.37 W/m2 CLR
03:47 53.6 °F 49.5 °F 29.83 in Calm     86% 0.00 in WeatherDisplay:10.37 W/m2 CLR
03:52 53.5 °F 49.7 °F 29.83 in Calm     87% 0.00 in WeatherDisplay:10.37 W/m2 CLR
03:57 53.5 °F 50.0 °F 29.82 in Calm     88% 0.00 in WeatherDisplay:10.37 W/m2 CLR
04:02 53.6 °F 50.4 °F 29.82 in Calm     89% 0.00 in WeatherDisplay:10.37 W/m2 CLR
04:07 53.6 °F 50.1 °F 29.84 in Calm     88% 0.00 in WeatherDisplay:10.37 W/m2 CLR
04:12 53.5 °F 50.0 °F 29.84 in Calm     88% 0.00 in WeatherDisplay:10.37 W/m2 CLR
04:17 53.4 °F 49.9 °F 29.84 in Calm     88% 0.00 in WeatherDisplay:10.37 W/m2 CLR
04:22 53.3 °F 49.8 °F 29.84 in Calm     88% 0.00 in WeatherDisplay:10.37 W/m2 CLR
04:27 53.2 °F 49.4 °F 29.84 in Calm     87% 0.00 in WeatherDisplay:10.37 W/m2 CLR
04:32 53.0 °F 49.5 °F 29.84 in Calm     88% 0.00 in WeatherDisplay:10.37 W/m2 CLR
04:37 52.8 °F 49.3 °F 29.84 in Calm     88% 0.00 in WeatherDisplay:10.37 W/m2 CLR
04:42 52.7 °F 48.9 °F 29.84 in Calm     87% 0.00 in WeatherDisplay:10.37 W/m2 CLR
04:47 52.5 °F 49.0 °F 29.84 in Calm     88% 0.00 in WeatherDisplay:10.37 W/m2 CLR
04:52 52.4 °F 48.9 °F 29.85 in Calm     88% 0.00 in WeatherDisplay:10.37 W/m2 CLR
04:57 52.3 °F 49.2 °F 29.85 in Calm     89% 0.00 in WeatherDisplay:10.37 W/m2 CLR
05:02 52.2 °F 49.1 °F 29.85 in Calm     89% 0.00 in WeatherDisplay:10.37 W/m2 CLR
05:07 52.2 °F 49.1 °F 29.85 in Calm     89% 0.00 in WeatherDisplay:10.37 W/m2 CLR
05:12 52.1 °F 49.3 °F 29.85 in Calm     90% 0.00 in WeatherDisplay:10.37 W/m2 CLR
05:17 52.1 °F 49.0 °F 29.85 in Calm     89% 0.00 in WeatherDisplay:10.37 W/m2 CLR
05:22 52.0 °F 48.9 °F 29.85 in SW 1.2 mph   89% 0.00 in WeatherDisplay:10.37 W/m2 CLR
05:27 51.9 °F 49.1 °F 29.85 in Calm     90% 0.00 in WeatherDisplay:10.37 W/m2 CLR
05:32 51.8 °F 49.0 °F 29.85 in Calm     90% 0.00 in WeatherDisplay:10.37 W/m2 CLR
05:37 51.8 °F 49.0 °F 29.85 in Calm     90% 0.00 in WeatherDisplay:10.37 W/m2 CLR
05:42 51.7 °F 48.9 °F 29.85 in Calm     90% 0.00 in WeatherDisplay:10.37 W/m2 CLR
05:47 51.6 °F 48.8 °F 29.85 in Calm     90% 0.00 in WeatherDisplay:10.37 W/m2 CLR
05:52 51.5 °F 48.7 °F 29.85 in Calm     90% 0.00 in WeatherDisplay:10.37 W/m2 CLR
05:57 51.5 °F 48.7 °F 29.85 in Calm     90% 0.00 in WeatherDisplay:10.37 W/m2 CLR
06:02 51.3 °F 48.5 °F 29.85 in Calm     90% 0.00 in WeatherDisplay:10.37 W/m2 CLR
06:07 51.2 °F 48.4 °F 29.85 in Calm     90% 0.00 in WeatherDisplay:10.37 W/m2 CLR
06:12 51.2 °F 48.4 °F 29.85 in Calm     90% 0.00 in WeatherDisplay:10.37 W/m2 CLR
06:17 51.1 °F 48.3 °F 29.85 in Calm     90% 0.00 in WeatherDisplay:10.37 W/m2 CLR
06:22 51.0 °F 48.2 °F 29.85 in Calm     90% 0.00 in WeatherDisplay:10.37 W/m2 CLR
06:27 51.0 °F 48.2 °F 29.85 in Calm     90% 0.00 in WeatherDisplay:10.37 W/m2 CLR
06:32 51.1 °F 48.6 °F 29.85 in Calm     91% 0.00 in WeatherDisplay:10.37 W/m2 CLR
06:37 51.5 °F 49.0 °F 29.85 in Calm     91% 0.00 in WeatherDisplay:10.37 W/m2 CLR
06:42 51.9 °F 49.6 °F 29.85 in SW 1.2 mph 1.2 mph 92% 0.00 in WeatherDisplay:10.37 W/m2 CLR
06:47 52.1 °F 49.6 °F 29.85 in Calm     91% 0.00 in WeatherDisplay:10.37 W/m2 CLR
06:52 52.3 °F 49.8 °F 29.85 in SW 1.2 mph 1.9 mph 91% 0.00 in WeatherDisplay:10.37 W/m2 CLR
06:57 52.6 °F 49.8 °F 29.85 in SW 3.5 mph 3.5 mph 90% 0.00 in WeatherDisplay:10.37 W/m2 CLR
07:02 53.2 °F 50.3 °F 29.87 in SSW 3.5 mph 3.5 mph 90% 0.00 in WeatherDisplay:10.37 W/m2 CLR
07:07 53.8 °F 51.2 °F 29.87 in SSW 1.2 mph   91% 0.00 in WeatherDisplay:10.37 W/m2 CLR
07:12 54.6 °F 51.7 °F 29.86 in SSW 2.3 mph 2.3 mph 90% 0.00 in WeatherDisplay:10.37 W/m2 CLR
07:17 55.5 °F 52.0 °F 29.86 in SSW 3.5 mph 3.5 mph 88% 0.00 in WeatherDisplay:10.37 W/m2 CLR
07:22 56.3 °F 52.5 °F 29.86 in SSW 1.2 mph 1.2 mph 87% 0.00 in WeatherDisplay:10.37 W/m2 CLR
07:27 57.1 °F 53.0 °F 29.85 in Calm   0.2 mph 86% 0.00 in WeatherDisplay:10.37 W/m2 CLR
07:32 57.9 °F 53.4 °F 29.85 in Calm     85% 0.00 in WeatherDisplay:10.37 W/m2 CLR
07:37 59.0 °F 52.8 °F 29.84 in SSW 1.2 mph   80% 0.00 in WeatherDisplay:10.37 W/m2 CLR
07:42 60.0 °F 52.8 °F 29.84 in Calm     77% 0.00 in WeatherDisplay:10.37 W/m2 CLR
Windsor Co Weather
Compliments of Weather Underground - 1.75 mb